KRIC/RIC METAR and TAF weather

Enter ICAO airport designator
Station Type Date Time Source
KRIC METAR 2021/07/27 22:32 UTC NOAA

KRIC 272232Z 00000KT 10SM FEW033CB SCT080 31/23 A2994 RMK AO2 RAE2159 TSE26 CB S-SW MOV SE P0000 T03060233


Station Type Date Time Source
KRIC Decoded METAR 2021/07/27 22:32 UTC NOAA

RICHMOND INTERNATIONAL AIRPORT, VA, United States (KRIC) 37-31N 077-19W 50M
Jul 27, 2021 - 06:32 PM EDT / 2021.07.27 2232 UTC
Wind: Calm:0
Visibility: 10 mile(s):0
Sky conditions: partly cloudy
Weather: Cumulonimbus clouds observed
Precipitation last hour: A trace
Temperature: 87.1 F (30.6 C)
Heat index: 95.4 F (35.2 C):1
Dew Point: 73.9 F (23.3 C)
Relative Humidity: 65%
Pressure (altimeter): 29.94 in. Hg (1013 hPa)
ob: KRIC 272232Z 00000KT 10SM FEW033CB SCT080 31/23 A2994 RMK AO2 RAE2159 TSE26 CB S-SW MOV SE P0000 T03060233
cycle: 22

Station Type Date Time Source
KRIC TAF 2021/07/27 22:59 UTC NOAA

TAF
AMD KRIC 272159Z 2722/2818 VRB05KT P6SM VCTS SCT035CB BKN080
TEMPO 2722/2723 4SM -TSRA BKN030CB
FM280000 VRB03KT P6SM SCT150

Example: see airport list